createdAt,value
2022-09-21T00:01:19.380Z,1.85
2022-09-21T00:03:47.031Z,1.77
2022-09-21T00:06:17.168Z,1.85
2022-09-21T00:08:46.061Z,1.88
2022-09-21T00:11:19.114Z,2.42
2022-09-21T00:13:47.011Z,2.25
2022-09-21T00:16:15.824Z,3.33
2022-09-21T00:18:42.964Z,2.78
2022-09-21T00:21:12.175Z,3.38
2022-09-21T00:23:39.165Z,2.10
2022-09-21T00:26:15.015Z,1.70
2022-09-21T00:28:42.373Z,1.90
2022-09-21T00:31:12.444Z,1.70
2022-09-21T00:33:41.066Z,5.53
2022-09-21T00:36:10.601Z,2.92
2022-09-21T00:38:38.000Z,2.63
2022-09-21T00:41:06.187Z,1.75
2022-09-21T00:44:11.323Z,4.90
2022-09-21T00:46:40.300Z,2.47
2022-09-21T00:49:07.556Z,2.03
2022-09-21T00:51:35.558Z,2.85
2022-09-21T00:54:07.682Z,3.63
2022-09-21T00:59:03.100Z,2.05
2022-09-21T01:01:31.055Z,2.60
2022-09-21T01:03:57.983Z,5.72
2022-09-21T01:06:26.458Z,3.47
2022-09-21T01:08:59.062Z,3.95
2022-09-21T01:12:13.237Z,4.70
2022-09-21T01:17:15.323Z,3.95
2022-09-21T01:19:55.838Z,2.10
2022-09-21T01:22:42.048Z,2.88
2022-09-21T01:25:33.390Z,2.17
2022-09-21T01:28:14.983Z,1.85
2022-09-21T01:30:46.975Z,2.20
2022-09-21T01:33:22.847Z,2.97
2022-09-21T01:35:56.539Z,3.17
2022-09-21T01:38:27.931Z,2.13
2022-09-21T01:41:00.606Z,2.53
2022-09-21T01:43:32.508Z,2.17
2022-09-21T01:46:04.240Z,2.45
2022-09-21T01:48:36.847Z,2.13
2022-09-21T01:51:07.884Z,2.17
2022-09-21T01:54:13.246Z,2.47
2022-09-21T01:56:43.496Z,3.78
2022-09-21T01:59:25.209Z,2.47
2022-09-21T02:02:03.328Z,2.95
2022-09-21T02:06:57.416Z,4.03
2022-09-21T02:09:25.283Z,2.58
2022-09-21T02:11:52.165Z,2.08
2022-09-21T02:14:22.676Z,4.07
2022-09-21T02:17:15.158Z,2.05
2022-09-21T02:20:02.673Z,2.22
2022-09-21T02:22:33.320Z,2.22
2022-09-21T02:25:11.975Z,5.30
2022-09-21T02:27:43.262Z,3.45
2022-09-21T02:30:23.346Z,2.25
2022-09-21T02:33:32.479Z,3.13
2022-09-21T02:36:10.350Z,4.68
2022-09-21T02:38:47.293Z,2.90
2022-09-21T02:41:26.911Z,3.70
2022-09-21T02:44:06.551Z,2.78
2022-09-21T02:46:40.823Z,6.22
2022-09-21T02:49:13.545Z,4.68
2022-09-21T02:51:44.523Z,3.67
2022-09-21T02:54:13.934Z,2.58
2022-09-21T02:56:42.659Z,2.10
2022-09-21T02:59:10.479Z,2.08
2022-09-21T03:01:40.195Z,5.70
2022-09-21T03:04:07.383Z,14.25
2022-09-21T03:06:34.655Z,10.27
2022-09-21T03:09:01.531Z,4.88
2022-09-21T03:11:28.449Z,2.28
2022-09-21T03:13:55.333Z,3.42
2022-09-21T03:16:23.030Z,2.88
2022-09-21T03:18:50.144Z,5.57
2022-09-21T03:21:17.105Z,2.80
2022-09-21T03:23:43.872Z,3.65
2022-09-21T03:26:10.689Z,2.65
2022-09-21T03:28:37.475Z,2.67
2022-09-21T03:31:04.601Z,3.03
2022-09-21T03:33:31.610Z,2.80
2022-09-21T03:35:58.664Z,7.05
2022-09-21T03:38:27.043Z,2.40
2022-09-21T03:40:58.210Z,2.80
2022-09-21T03:43:25.603Z,9.77
2022-09-21T03:45:53.226Z,4.85
2022-09-21T03:48:21.711Z,7.60
2022-09-21T03:50:48.622Z,6.88
2022-09-21T03:53:15.692Z,7.72
2022-09-21T03:55:43.218Z,6.20
2022-09-21T03:58:10.548Z,7.60
2022-09-21T04:00:39.277Z,11.75
2022-09-21T04:03:06.247Z,4.90
2022-09-21T04:05:33.119Z,9.82
2022-09-21T04:08:02.118Z,3.95
2022-09-21T04:10:32.873Z,10.95
2022-09-21T04:13:04.430Z,4.88
2022-09-21T04:15:31.585Z,4.30
2022-09-21T04:17:59.340Z,17.35
2022-09-21T04:20:26.560Z,8.35
2022-09-21T04:22:53.376Z,11.57
2022-09-21T04:25:20.648Z,16.85
2022-09-21T04:27:47.913Z,8.40
2022-09-21T04:30:16.543Z,5.82
2022-09-21T04:32:44.012Z,7.95
2022-09-21T04:35:10.895Z,3.90
2022-09-21T04:37:37.827Z,7.55
2022-09-21T04:40:05.802Z,18.00
2022-09-21T04:42:32.981Z,20.90
2022-09-21T04:44:59.764Z,21.27
2022-09-21T04:47:26.692Z,19.65
2022-09-21T04:49:53.673Z,33.08
2022-09-21T04:52:20.532Z,11.95
2022-09-21T04:54:48.049Z,31.60
2022-09-21T04:57:15.341Z,17.75
2022-09-21T04:59:42.178Z,39.10
2022-09-21T05:02:09.210Z,15.70
2022-09-21T05:04:36.072Z,21.35
2022-09-21T05:07:03.021Z,7.68
2022-09-21T05:09:48.651Z,3.88
2022-09-21T05:12:15.571Z,13.65
2022-09-21T05:14:44.216Z,6.10
2022-09-21T05:17:12.369Z,13.75
2022-09-21T05:19:39.365Z,20.88
2022-09-21T05:22:06.304Z,9.88
2022-09-21T05:24:33.196Z,17.48
2022-09-21T05:27:00.066Z,10.60
2022-09-21T05:29:27.206Z,11.35
2022-09-21T05:32:03.840Z,10.77
2022-09-21T05:34:38.002Z,61.08
2022-09-21T05:37:17.411Z,20.55
2022-09-21T05:39:44.697Z,4.70
2022-09-21T05:42:12.381Z,19.00
2022-09-21T05:44:39.490Z,4.68
2022-09-21T05:47:33.449Z,7.10
2022-09-21T05:50:06.424Z,14.18
2022-09-21T05:52:50.808Z,3.63
2022-09-21T05:55:47.831Z,2.40
2022-09-21T05:58:29.752Z,10.10
2022-09-21T06:01:23.981Z,3.58
2022-09-21T06:03:51.367Z,4.45
2022-09-21T06:06:19.247Z,2.42
2022-09-21T06:08:46.326Z,2.75
2022-09-21T06:11:14.135Z,4.63
2022-09-21T06:13:41.555Z,2.67
2022-09-21T06:16:08.545Z,6.35
2022-09-21T06:18:39.966Z,15.20
2022-09-21T06:21:08.211Z,2.80
2022-09-21T06:23:35.708Z,2.92
2022-09-21T06:26:02.596Z,4.57
2022-09-21T06:28:29.871Z,5.63
2022-09-21T06:30:58.071Z,5.53
2022-09-21T06:33:25.237Z,11.45
2022-09-21T06:35:59.605Z,4.72
2022-09-21T06:51:05.825Z,44.67
2022-09-21T06:53:33.707Z,34.20
2022-09-21T06:56:01.854Z,49.30
2022-09-21T06:58:29.702Z,39.58
2022-09-21T07:00:56.395Z,29.85
2022-09-21T07:03:23.139Z,35.50
2022-09-21T07:05:49.779Z,35.22
2022-09-21T07:11:32.728Z,38.30
2022-09-21T07:13:59.900Z,35.90
2022-09-21T07:20:58.108Z,18.60
2022-09-21T07:23:24.957Z,13.48
2022-09-21T07:25:52.681Z,15.38
2022-09-21T07:28:19.888Z,15.23
2022-09-21T07:30:46.760Z,13.20
2022-09-21T07:33:13.648Z,21.25
2022-09-21T07:35:40.415Z,13.88
2022-09-21T07:38:08.500Z,15.95
2022-09-21T07:40:35.983Z,20.58
2022-09-21T07:43:03.027Z,15.68
2022-09-21T07:45:31.171Z,37.63
2022-09-21T07:48:09.096Z,27.52
2022-09-21T07:50:35.976Z,26.02
2022-09-21T07:53:03.661Z,20.35
2022-09-21T07:55:31.622Z,12.15
2022-09-21T07:58:16.956Z,17.52
2022-09-21T08:00:44.095Z,13.88
2022-09-21T08:03:12.037Z,11.18
2022-09-21T09:24:00.599Z,4.72
2022-09-21T09:28:57.962Z,9.48
2022-09-21T09:31:24.826Z,2.50
2022-09-21T09:33:51.478Z,2.13
2022-09-21T09:36:30.117Z,3.33
2022-09-21T09:39:23.460Z,1.70
2022-09-21T09:43:04.756Z,2.03
2022-09-21T09:45:55.648Z,4.25
2022-09-21T09:49:02.943Z,1.23
2022-09-21T09:51:30.034Z,6.85
2022-09-21T09:53:59.919Z,5.95
2022-09-21T09:56:27.294Z,1.85
2022-09-21T09:58:58.868Z,38.30
2022-09-21T10:01:43.128Z,13.77
2022-09-21T10:04:18.092Z,4.35
2022-09-21T10:06:46.946Z,12.27
2022-09-21T10:09:25.539Z,11.02
2022-09-21T10:11:55.693Z,2.72
2022-09-21T10:14:25.658Z,3.28
2022-09-21T10:16:54.149Z,5.38
2022-09-21T10:19:26.641Z,6.72
2022-09-21T10:22:05.097Z,5.78
2022-09-21T10:24:38.155Z,2.63
2022-09-21T10:27:20.867Z,2.08
2022-09-21T10:29:49.196Z,3.95
2022-09-21T10:32:18.707Z,3.97
2022-09-21T10:35:10.389Z,2.25
2022-09-21T10:37:46.437Z,4.00
2022-09-21T10:40:19.549Z,6.90
2022-09-21T10:42:52.188Z,4.13
2022-09-21T10:45:23.327Z,6.28
2022-09-21T10:47:53.117Z,0.88
2022-09-21T10:50:28.282Z,2.38
2022-09-21T10:53:01.136Z,3.80
2022-09-21T10:55:30.472Z,2.95
2022-09-21T10:57:57.897Z,3.53
2022-09-21T11:00:24.652Z,3.55
2022-09-21T11:02:52.388Z,5.57
2022-09-21T11:05:28.072Z,5.28
2022-09-21T11:08:05.570Z,2.97
2022-09-21T11:11:02.752Z,2.08
2022-09-21T11:13:47.290Z,2.95
2022-09-21T11:16:14.221Z,1.17
2022-09-21T11:18:58.984Z,0.47
2022-09-21T11:21:47.538Z,0.57
2022-09-21T11:24:22.926Z,1.65
2022-09-21T11:27:04.095Z,7.10
2022-09-21T11:29:47.523Z,3.13
2022-09-21T11:32:26.380Z,5.07
2022-09-21T11:35:15.957Z,17.15
2022-09-21T11:38:13.047Z,4.95
2022-09-21T11:41:03.954Z,1.75
2022-09-21T11:43:50.051Z,5.10
2022-09-21T11:46:25.299Z,0.70
2022-09-21T11:49:32.382Z,3.38
2022-09-21T11:52:21.702Z,2.85
2022-09-21T11:54:52.040Z,7.20
2022-09-21T11:57:39.079Z,9.00
2022-09-21T12:00:15.421Z,3.95
2022-09-21T12:03:16.382Z,5.03
2022-09-21T12:06:13.444Z,5.47
2022-09-21T12:08:54.355Z,7.22
2022-09-21T12:11:44.511Z,6.13
2022-09-21T12:14:26.944Z,5.15
2022-09-21T12:22:32.503Z,16.73
2022-09-21T12:25:13.944Z,1.13
2022-09-21T12:27:45.004Z,9.35
2022-09-21T12:30:17.916Z,6.80
2022-09-21T12:32:53.261Z,6.85
2022-09-21T12:35:28.103Z,6.25
2022-09-21T12:38:04.113Z,11.60
2022-09-21T12:40:38.175Z,2.55
2022-09-21T12:43:14.305Z,4.47
2022-09-21T12:45:53.588Z,5.85
2022-09-21T12:48:39.040Z,7.20
2022-09-21T12:51:18.309Z,9.45
2022-09-21T12:53:51.289Z,5.18
2022-09-21T12:56:24.424Z,4.90
2022-09-21T12:58:57.831Z,5.45
2022-09-21T13:01:35.643Z,2.05
2022-09-21T13:06:54.392Z,5.40
2022-09-21T13:09:23.286Z,14.38
2022-09-21T13:11:57.406Z,1.58
2022-09-21T13:14:28.039Z,5.03
2022-09-21T13:16:58.658Z,9.52
2022-09-21T13:19:29.201Z,5.28
2022-09-21T13:22:13.890Z,1.00
2022-09-21T13:24:42.964Z,6.82
2022-09-21T13:27:09.968Z,12.50
2022-09-21T13:29:40.094Z,18.42
2022-09-21T13:32:12.675Z,13.00
2022-09-21T13:34:41.471Z,8.07
2022-09-21T13:37:11.351Z,4.68
2022-09-21T13:39:50.753Z,6.63
2022-09-21T13:42:29.889Z,10.20
2022-09-21T13:44:58.156Z,7.70
2022-09-21T13:47:33.984Z,5.13
2022-09-21T13:50:39.302Z,9.73
2022-09-21T13:53:23.592Z,3.38
2022-09-21T13:55:54.057Z,6.55
2022-09-21T13:58:34.065Z,6.60
2022-09-21T14:01:35.436Z,6.30
2022-09-21T14:04:04.245Z,28.10
2022-09-21T14:06:35.829Z,7.25
2022-09-21T14:09:06.676Z,4.55
2022-09-21T14:11:39.209Z,15.18
2022-09-21T14:14:15.002Z,3.40
2022-09-21T14:16:47.753Z,7.55
2022-09-21T14:19:17.690Z,11.93
2022-09-21T14:22:10.744Z,7.05
2022-09-21T14:24:43.119Z,9.45
2022-09-21T14:27:33.040Z,10.93
2022-09-21T14:32:50.767Z,7.35
2022-09-21T14:35:23.990Z,9.40
2022-09-21T14:37:56.244Z,4.68
2022-09-21T14:40:26.898Z,0.93
2022-09-21T14:42:55.708Z,5.43
2022-09-21T14:45:36.592Z,6.32
2022-09-21T14:48:37.423Z,2.47
2022-09-21T14:51:38.405Z,1.45
2022-09-21T14:54:31.417Z,7.63
2022-09-21T14:56:58.264Z,5.40
2022-09-21T14:59:39.275Z,3.78
2022-09-21T15:02:21.096Z,2.40
2022-09-21T15:05:29.109Z,1.80
2022-09-21T15:08:36.236Z,3.60
2022-09-21T15:11:16.005Z,9.80
2022-09-21T15:14:03.804Z,8.25
2022-09-21T15:16:47.339Z,3.78
2022-09-21T15:19:18.983Z,21.27
2022-09-21T15:21:57.081Z,15.27
2022-09-21T15:24:51.122Z,6.90
2022-09-21T15:27:19.512Z,1.52
2022-09-21T15:29:49.302Z,5.55
2022-09-21T15:32:31.810Z,3.60
2022-09-21T15:35:02.301Z,1.48
2022-09-21T15:37:34.445Z,2.13
2022-09-21T15:40:03.373Z,3.33
2022-09-21T15:42:31.012Z,5.72
2022-09-21T15:45:18.268Z,1.75
2022-09-21T15:47:45.357Z,1.13
2022-09-21T15:50:14.383Z,1.98
2022-09-21T15:52:48.710Z,7.68
2022-09-21T15:55:21.591Z,6.63
2022-09-21T15:57:58.951Z,5.63
2022-09-21T16:00:36.549Z,5.88
2022-09-21T16:03:19.761Z,17.42
2022-09-21T16:05:50.137Z,13.25
2022-09-21T16:08:19.246Z,14.75
2022-09-21T16:10:46.255Z,11.68
2022-09-21T16:13:36.957Z,4.65
2022-09-21T16:16:14.884Z,4.50
2022-09-21T16:18:54.499Z,3.90
2022-09-21T16:21:32.554Z,9.13
2022-09-21T16:24:10.959Z,11.90
2022-09-21T16:26:39.331Z,8.00
2022-09-21T16:29:09.220Z,6.70
2022-09-21T16:31:37.460Z,4.57
2022-09-21T16:34:27.299Z,2.45
2022-09-21T16:36:54.859Z,3.63
2022-09-21T16:39:22.827Z,11.30
2022-09-21T16:41:50.998Z,2.00
2022-09-21T16:44:25.646Z,1.05
2022-09-21T16:46:56.562Z,3.78
2022-09-21T16:49:30.192Z,5.78
2022-09-21T16:51:58.321Z,15.82
2022-09-21T16:54:27.202Z,11.40
2022-09-21T16:56:59.827Z,2.78
2022-09-21T16:59:27.652Z,6.68
2022-09-21T17:01:57.155Z,5.18
2022-09-21T17:04:30.172Z,3.53
2022-09-21T17:06:58.465Z,2.60
2022-09-21T17:09:29.421Z,7.95
2022-09-21T17:12:01.317Z,4.80
2022-09-21T17:14:35.737Z,2.17
2022-09-21T17:17:24.028Z,4.20
2022-09-21T17:19:53.382Z,5.18
2022-09-21T17:22:20.839Z,4.90
2022-09-21T17:24:51.654Z,6.00
2022-09-21T17:27:29.266Z,0.63
2022-09-21T17:29:56.607Z,1.13
2022-09-21T17:32:25.029Z,2.60
2022-09-21T17:35:00.271Z,0.50
2022-09-21T17:37:27.339Z,3.30
2022-09-21T17:39:54.224Z,3.33
2022-09-21T17:42:25.102Z,5.78
2022-09-21T17:44:55.102Z,1.80
2022-09-21T17:47:25.664Z,11.02
2022-09-21T17:49:52.840Z,6.90
2022-09-21T17:52:40.797Z,3.35
2022-09-21T17:55:11.251Z,5.18
2022-09-21T17:58:00.683Z,1.67
2022-09-21T18:00:44.452Z,1.35
2022-09-21T18:03:22.148Z,9.05
2022-09-21T18:05:50.938Z,2.88
2022-09-21T18:08:18.791Z,19.98
2022-09-21T18:11:02.410Z,10.30
2022-09-21T18:13:54.115Z,0.60
2022-09-21T18:16:34.859Z,2.28
2022-09-21T18:19:05.015Z,2.17
2022-09-21T18:21:38.104Z,3.85
2022-09-21T18:24:34.068Z,18.33
2022-09-21T18:27:01.843Z,31.50
2022-09-21T18:29:41.973Z,27.38
2022-09-21T18:32:24.184Z,8.82
2022-09-21T18:35:21.755Z,7.43
2022-09-21T18:38:10.324Z,9.05
2022-09-21T18:41:00.445Z,7.43
2022-09-21T18:46:18.644Z,3.28
2022-09-21T18:48:52.688Z,13.35
2022-09-21T18:51:42.888Z,3.92
2022-09-21T18:54:19.019Z,16.30
2022-09-21T18:56:46.233Z,10.93
2022-09-21T18:59:15.630Z,4.85
2022-09-21T19:01:44.681Z,2.85
2022-09-21T19:04:12.007Z,5.47
2022-09-21T19:06:56.883Z,1.83
2022-09-21T19:09:43.290Z,1.65
2022-09-21T19:12:25.395Z,2.05
2022-09-21T19:14:59.013Z,6.10
2022-09-21T19:17:50.599Z,8.85
2022-09-21T19:20:41.980Z,3.25
2022-09-21T19:23:26.978Z,7.63
2022-09-21T19:26:04.991Z,3.75
2022-09-21T19:31:14.825Z,1.92
2022-09-21T19:33:50.898Z,3.53
2022-09-21T19:36:19.214Z,1.30
2022-09-21T19:38:46.744Z,3.33
2022-09-21T19:41:19.629Z,5.82
2022-09-21T19:44:16.454Z,2.22
2022-09-21T19:47:01.988Z,1.92
2022-09-21T19:49:41.468Z,0.50
2022-09-21T19:52:14.999Z,1.55
2022-09-21T19:55:00.920Z,0.95
2022-09-21T19:57:46.847Z,1.20
2022-09-21T20:00:19.423Z,1.98
2022-09-21T20:02:58.503Z,2.88
2022-09-21T20:05:40.752Z,3.22
2022-09-21T20:08:21.404Z,1.35
2022-09-21T20:11:15.231Z,1.90
2022-09-21T20:14:14.703Z,5.35
2022-09-21T20:17:00.887Z,3.08
2022-09-21T20:19:53.135Z,4.53
2022-09-21T20:22:34.703Z,2.75
2022-09-21T20:25:13.847Z,0.60
2022-09-21T20:27:51.700Z,1.75
2022-09-21T20:30:22.284Z,0.50
2022-09-21T20:32:54.848Z,2.20
2022-09-21T20:35:24.209Z,4.53
2022-09-21T20:37:54.449Z,1.40
2022-09-21T20:40:26.303Z,1.63
2022-09-21T20:42:53.546Z,1.05
2022-09-21T20:45:20.484Z,1.23
2022-09-21T20:47:51.738Z,1.13
2022-09-21T20:50:19.433Z,0.47
2022-09-21T20:52:46.321Z,3.17
2022-09-21T20:55:17.302Z,0.88
2022-09-21T20:57:44.586Z,2.05
2022-09-21T21:00:14.960Z,2.97
2022-09-21T21:02:42.121Z,0.63
2022-09-21T21:05:10.479Z,5.28
2022-09-21T21:07:37.559Z,2.30
2022-09-21T21:10:04.820Z,2.08
2022-09-21T21:12:32.414Z,2.00
2022-09-21T21:14:59.377Z,1.00
2022-09-21T21:17:26.578Z,2.80
2022-09-21T21:19:53.475Z,0.90
2022-09-21T21:22:20.429Z,2.47
2022-09-21T21:24:48.068Z,1.77
2022-09-21T21:27:17.648Z,0.57
2022-09-21T21:29:51.755Z,1.33
2022-09-21T21:32:26.387Z,1.67
2022-09-21T21:34:54.446Z,1.50
2022-09-21T21:37:25.057Z,0.82
2022-09-21T21:39:53.157Z,2.08
2022-09-21T21:42:20.836Z,1.20
2022-09-21T21:44:48.428Z,1.55
2022-09-21T21:47:38.176Z,2.05
2022-09-21T21:50:02.224Z,1.15
2022-09-21T21:52:29.282Z,2.00
2022-09-21T21:54:56.120Z,2.45
2022-09-21T21:57:22.924Z,2.25
2022-09-21T21:59:49.729Z,2.38
2022-09-21T22:02:16.627Z,3.22
2022-09-21T22:04:43.583Z,2.40
2022-09-21T22:07:10.760Z,2.05
2022-09-21T22:09:37.528Z,1.58
2022-09-21T22:12:04.670Z,2.05
2022-09-21T22:14:31.891Z,2.95
2022-09-21T22:16:59.265Z,1.45
2022-09-21T22:19:26.129Z,2.35
2022-09-21T22:21:54.595Z,1.30
2022-09-21T22:24:22.430Z,1.80
2022-09-21T22:26:49.442Z,3.75
2022-09-21T22:29:17.340Z,2.40
2022-09-21T22:31:47.416Z,1.58
2022-09-21T22:34:14.935Z,1.77
2022-09-21T22:36:45.539Z,2.72
2022-09-21T22:39:12.999Z,2.85
2022-09-21T22:41:43.371Z,1.15
2022-09-21T22:44:11.245Z,1.80
2022-09-21T22:46:38.948Z,1.92
2022-09-21T22:49:06.477Z,2.78
2022-09-21T22:51:34.250Z,1.20
2022-09-21T22:54:01.808Z,5.32
2022-09-21T22:56:30.946Z,2.33
2022-09-21T22:59:01.854Z,1.58
2022-09-21T23:01:37.940Z,0.50
2022-09-21T23:04:07.884Z,2.78
2022-09-21T23:06:37.149Z,1.40
2022-09-21T23:09:07.574Z,2.08
2022-09-21T23:11:38.202Z,1.35
2022-09-21T23:14:05.709Z,1.40
2022-09-21T23:16:32.776Z,1.30
2022-09-21T23:19:00.791Z,0.88
2022-09-21T23:21:30.269Z,1.60
2022-09-21T23:24:00.122Z,1.00
2022-09-21T23:26:28.728Z,1.83
2022-09-21T23:28:58.011Z,1.90
2022-09-21T23:31:28.779Z,1.48
2022-09-21T23:33:58.140Z,2.10
2022-09-21T23:36:27.242Z,1.27
2022-09-21T23:38:54.387Z,4.03
2022-09-21T23:41:23.738Z,3.30
2022-09-21T23:43:51.455Z,2.00
2022-09-21T23:46:21.445Z,2.90
2022-09-21T23:48:48.773Z,3.08
2022-09-21T23:51:16.624Z,7.55
2022-09-21T23:53:43.680Z,0.98
2022-09-21T23:56:15.792Z,1.27
